sensor_id;sensor_type;location;lat;lon;timestamp;P1;durP1;ratioP1;P2;durP2;ratioP2
32876;SDS011;19226;51.600;8.034;2023-04-25T00:01:46;28.83;;;7.05;;
32876;SDS011;19226;51.600;8.034;2023-04-25T00:04:31;22.40;;;6.90;;
32876;SDS011;19226;51.600;8.034;2023-04-25T00:07:17;15.38;;;7.05;;
32876;SDS011;19226;51.600;8.034;2023-04-25T00:10:02;20.15;;;7.28;;
32876;SDS011;19226;51.600;8.034;2023-04-25T00:12:47;18.67;;;6.75;;
32876;SDS011;19226;51.600;8.034;2023-04-25T00:15:32;22.77;;;6.78;;
32876;SDS011;19226;51.600;8.034;2023-04-25T00:18:17;20.35;;;6.63;;
32876;SDS011;19226;51.600;8.034;2023-04-25T00:21:02;21.92;;;7.47;;
32876;SDS011;19226;51.600;8.034;2023-04-25T00:23:46;28.00;;;7.47;;
32876;SDS011;19226;51.600;8.034;2023-04-25T00:26:31;20.40;;;6.72;;
32876;SDS011;19226;51.600;8.034;2023-04-25T00:29:15;19.98;;;6.15;;
32876;SDS011;19226;51.600;8.034;2023-04-25T00:32:01;21.27;;;7.28;;
32876;SDS011;19226;51.600;8.034;2023-04-25T00:34:46;19.35;;;7.05;;
32876;SDS011;19226;51.600;8.034;2023-04-25T00:37:31;16.67;;;6.93;;
32876;SDS011;19226;51.600;8.034;2023-04-25T00:40:17;25.67;;;6.40;;
32876;SDS011;19226;51.600;8.034;2023-04-25T00:43:01;18.15;;;7.53;;
32876;SDS011;19226;51.600;8.034;2023-04-25T00:45:47;22.70;;;7.22;;
32876;SDS011;19226;51.600;8.034;2023-04-25T00:48:33;22.23;;;7.10;;
32876;SDS011;19226;51.600;8.034;2023-04-25T00:51:21;16.38;;;8.15;;
32876;SDS011;19226;51.600;8.034;2023-04-25T00:54:06;19.90;;;7.00;;
32876;SDS011;19226;51.600;8.034;2023-04-25T00:56:50;23.70;;;7.05;;
32876;SDS011;19226;51.600;8.034;2023-04-25T00:59:35;21.45;;;7.75;;
32876;SDS011;19226;51.600;8.034;2023-04-25T01:02:21;22.73;;;6.65;;
32876;SDS011;19226;51.600;8.034;2023-04-25T01:05:05;21.33;;;7.45;;
32876;SDS011;19226;51.600;8.034;2023-04-25T01:07:50;22.63;;;6.65;;
32876;SDS011;19226;51.600;8.034;2023-04-25T01:10:35;23.63;;;7.25;;
32876;SDS011;19226;51.600;8.034;2023-04-25T01:13:21;31.02;;;7.57;;
32876;SDS011;19226;51.600;8.034;2023-04-25T01:16:05;21.50;;;8.32;;
32876;SDS011;19226;51.600;8.034;2023-04-25T01:18:50;20.35;;;7.68;;
32876;SDS011;19226;51.600;8.034;2023-04-25T01:21:35;22.20;;;7.57;;
32876;SDS011;19226;51.600;8.034;2023-04-25T01:24:20;17.98;;;8.05;;
32876;SDS011;19226;51.600;8.034;2023-04-25T01:27:05;17.17;;;7.90;;
32876;SDS011;19226;51.600;8.034;2023-04-25T01:29:50;20.90;;;8.52;;
32876;SDS011;19226;51.600;8.034;2023-04-25T01:32:35;20.00;;;8.68;;
32876;SDS011;19226;51.600;8.034;2023-04-25T01:35:23;28.10;;;8.23;;
32876;SDS011;19226;51.600;8.034;2023-04-25T01:38:11;19.58;;;8.27;;
32876;SDS011;19226;51.600;8.034;2023-04-25T01:40:56;24.60;;;9.20;;
32876;SDS011;19226;51.600;8.034;2023-04-25T01:43:40;22.40;;;9.00;;
32876;SDS011;19226;51.600;8.034;2023-04-25T01:46:26;18.77;;;8.88;;
32876;SDS011;19226;51.600;8.034;2023-04-25T01:49:11;15.98;;;9.27;;
32876;SDS011;19226;51.600;8.034;2023-04-25T01:51:56;26.48;;;9.35;;
32876;SDS011;19226;51.600;8.034;2023-04-25T01:54:41;22.80;;;9.80;;
32876;SDS011;19226;51.600;8.034;2023-04-25T01:57:28;21.10;;;9.85;;
32876;SDS011;19226;51.600;8.034;2023-04-25T02:00:13;25.23;;;9.90;;
32876;SDS011;19226;51.600;8.034;2023-04-25T02:02:58;24.10;;;9.15;;
32876;SDS011;19226;51.600;8.034;2023-04-25T02:05:47;21.70;;;9.95;;
32876;SDS011;19226;51.600;8.034;2023-04-25T02:08:32;25.55;;;9.82;;
32876;SDS011;19226;51.600;8.034;2023-04-25T02:11:17;29.50;;;11.52;;
32876;SDS011;19226;51.600;8.034;2023-04-25T02:14:13;26.15;;;11.38;;
32876;SDS011;19226;51.600;8.034;2023-04-25T02:17:07;26.65;;;10.07;;
32876;SDS011;19226;51.600;8.034;2023-04-25T02:19:51;34.17;;;12.07;;
32876;SDS011;19226;51.600;8.034;2023-04-25T02:22:36;32.38;;;12.05;;
32876;SDS011;19226;51.600;8.034;2023-04-25T02:25:24;21.70;;;11.65;;
32876;SDS011;19226;51.600;8.034;2023-04-25T02:28:09;25.63;;;11.73;;
32876;SDS011;19226;51.600;8.034;2023-04-25T02:30:54;27.55;;;12.15;;
32876;SDS011;19226;51.600;8.034;2023-04-25T02:33:39;29.90;;;11.70;;
32876;SDS011;19226;51.600;8.034;2023-04-25T02:36:24;26.10;;;11.80;;
32876;SDS011;19226;51.600;8.034;2023-04-25T02:39:10;24.15;;;12.02;;
32876;SDS011;19226;51.600;8.034;2023-04-25T02:41:54;25.38;;;12.60;;
32876;SDS011;19226;51.600;8.034;2023-04-25T02:44:39;25.67;;;11.63;;
32876;SDS011;19226;51.600;8.034;2023-04-25T02:47:23;24.10;;;11.25;;
32876;SDS011;19226;51.600;8.034;2023-04-25T02:50:08;25.10;;;12.27;;
32876;SDS011;19226;51.600;8.034;2023-04-25T02:52:53;34.53;;;12.27;;
32876;SDS011;19226;51.600;8.034;2023-04-25T02:55:43;28.83;;;12.05;;
32876;SDS011;19226;51.600;8.034;2023-04-25T02:58:29;20.15;;;10.55;;
32876;SDS011;19226;51.600;8.034;2023-04-25T03:01:13;27.73;;;11.45;;
32876;SDS011;19226;51.600;8.034;2023-04-25T03:03:58;26.65;;;10.57;;
32876;SDS011;19226;51.600;8.034;2023-04-25T03:06:42;19.98;;;10.70;;
32876;SDS011;19226;51.600;8.034;2023-04-25T03:09:27;25.38;;;10.73;;
32876;SDS011;19226;51.600;8.034;2023-04-25T03:12:12;24.83;;;9.85;;
32876;SDS011;19226;51.600;8.034;2023-04-25T03:14:56;20.67;;;9.65;;
32876;SDS011;19226;51.600;8.034;2023-04-25T03:17:41;18.05;;;9.20;;
32876;SDS011;19226;51.600;8.034;2023-04-25T03:20:26;24.48;;;9.68;;
32876;SDS011;19226;51.600;8.034;2023-04-25T03:23:11;16.10;;;8.82;;
32876;SDS011;19226;51.600;8.034;2023-04-25T03:25:58;18.83;;;8.27;;
32876;SDS011;19226;51.600;8.034;2023-04-25T03:28:42;20.27;;;9.35;;
32876;SDS011;19226;51.600;8.034;2023-04-25T03:31:27;17.80;;;7.95;;
32876;SDS011;19226;51.600;8.034;2023-04-25T03:34:12;26.73;;;9.40;;
32876;SDS011;19226;51.600;8.034;2023-04-25T03:36:59;20.40;;;8.70;;
32876;SDS011;19226;51.600;8.034;2023-04-25T03:39:46;18.08;;;8.18;;
32876;SDS011;19226;51.600;8.034;2023-04-25T03:42:31;17.73;;;7.47;;
32876;SDS011;19226;51.600;8.034;2023-04-25T03:45:16;18.48;;;7.32;;
32876;SDS011;19226;51.600;8.034;2023-04-25T03:48:01;15.05;;;7.20;;
32876;SDS011;19226;51.600;8.034;2023-04-25T03:50:47;15.63;;;6.70;;
32876;SDS011;19226;51.600;8.034;2023-04-25T03:53:31;21.40;;;7.32;;
32876;SDS011;19226;51.600;8.034;2023-04-25T03:56:42;20.73;;;7.25;;
32876;SDS011;19226;51.600;8.034;2023-04-25T03:59:35;12.48;;;5.95;;
32876;SDS011;19226;51.600;8.034;2023-04-25T04:02:20;18.63;;;7.05;;
32876;SDS011;19226;51.600;8.034;2023-04-25T04:05:05;27.92;;;6.38;;
32876;SDS011;19226;51.600;8.034;2023-04-25T04:07:54;23.95;;;6.75;;
32876;SDS011;19226;51.600;8.034;2023-04-25T04:10:40;21.55;;;6.55;;
32876;SDS011;19226;51.600;8.034;2023-04-25T04:13:25;13.60;;;5.47;;
32876;SDS011;19226;51.600;8.034;2023-04-25T04:16:10;15.20;;;5.90;;
32876;SDS011;19226;51.600;8.034;2023-04-25T04:18:55;22.88;;;6.60;;
32876;SDS011;19226;51.600;8.034;2023-04-25T04:21:40;19.10;;;5.93;;
32876;SDS011;19226;51.600;8.034;2023-04-25T04:24:25;18.27;;;6.03;;
32876;SDS011;19226;51.600;8.034;2023-04-25T04:27:17;33.60;;;7.20;;
32876;SDS011;19226;51.600;8.034;2023-04-25T04:30:18;19.10;;;6.45;;
32876;SDS011;19226;51.600;8.034;2023-04-25T04:33:13;21.45;;;5.90;;
32876;SDS011;19226;51.600;8.034;2023-04-25T04:36:01;24.98;;;6.53;;
32876;SDS011;19226;51.600;8.034;2023-04-25T04:38:46;31.85;;;5.95;;
32876;SDS011;19226;51.600;8.034;2023-04-25T04:41:40;29.25;;;5.95;;
32876;SDS011;19226;51.600;8.034;2023-04-25T04:44:45;21.23;;;5.85;;
32876;SDS011;19226;51.600;8.034;2023-04-25T04:47:41;19.52;;;5.18;;
32876;SDS011;19226;51.600;8.034;2023-04-25T04:50:52;25.23;;;6.30;;
32876;SDS011;19226;51.600;8.034;2023-04-25T04:54:01;31.23;;;5.72;;
32876;SDS011;19226;51.600;8.034;2023-04-25T04:56:58;18.93;;;5.23;;
32876;SDS011;19226;51.600;8.034;2023-04-25T05:00:00;24.02;;;6.03;;
32876;SDS011;19226;51.600;8.034;2023-04-25T05:03:04;26.17;;;6.55;;
32876;SDS011;19226;51.600;8.034;2023-04-25T05:05:58;28.52;;;6.45;;
32876;SDS011;19226;51.600;8.034;2023-04-25T05:08:51;26.20;;;6.70;;
32876;SDS011;19226;51.600;8.034;2023-04-25T05:11:36;13.57;;;5.60;;
32876;SDS011;19226;51.600;8.034;2023-04-25T05:14:44;25.98;;;6.70;;
32876;SDS011;19226;51.600;8.034;2023-04-25T05:17:49;23.02;;;5.88;;
32876;SDS011;19226;51.600;8.034;2023-04-25T05:21:03;25.70;;;6.25;;
32876;SDS011;19226;51.600;8.034;2023-04-25T05:24:15;22.80;;;7.00;;
32876;SDS011;19226;51.600;8.034;2023-04-25T05:27:18;16.30;;;5.93;;
32876;SDS011;19226;51.600;8.034;2023-04-25T05:30:25;30.15;;;5.28;;
32876;SDS011;19226;51.600;8.034;2023-04-25T05:33:23;29.95;;;6.13;;
32876;SDS011;19226;51.600;8.034;2023-04-25T05:36:08;24.85;;;5.95;;
32876;SDS011;19226;51.600;8.034;2023-04-25T05:38:53;27.67;;;6.10;;
32876;SDS011;19226;51.600;8.034;2023-04-25T05:41:57;23.00;;;6.07;;
32876;SDS011;19226;51.600;8.034;2023-04-25T05:45:02;26.33;;;5.78;;
32876;SDS011;19226;51.600;8.034;2023-04-25T05:47:57;25.95;;;5.97;;
32876;SDS011;19226;51.600;8.034;2023-04-25T05:50:55;22.65;;;5.68;;
32876;SDS011;19226;51.600;8.034;2023-04-25T05:54:00;24.75;;;6.13;;
32876;SDS011;19226;51.600;8.034;2023-04-25T05:56:45;28.02;;;6.00;;
32876;SDS011;19226;51.600;8.034;2023-04-25T05:59:29;26.02;;;5.72;;
32876;SDS011;19226;51.600;8.034;2023-04-25T06:02:14;13.07;;;4.80;;
32876;SDS011;19226;51.600;8.034;2023-04-25T06:04:59;18.58;;;5.55;;
32876;SDS011;19226;51.600;8.034;2023-04-25T06:07:47;23.77;;;5.85;;
32876;SDS011;19226;51.600;8.034;2023-04-25T06:10:31;29.88;;;5.05;;
32876;SDS011;19226;51.600;8.034;2023-04-25T06:13:16;20.10;;;5.28;;
32876;SDS011;19226;51.600;8.034;2023-04-25T06:16:01;29.17;;;6.22;;
32876;SDS011;19226;51.600;8.034;2023-04-25T06:18:46;31.77;;;5.70;;
32876;SDS011;19226;51.600;8.034;2023-04-25T06:21:30;31.95;;;5.95;;
32876;SDS011;19226;51.600;8.034;2023-04-25T06:24:16;18.70;;;5.88;;
32876;SDS011;19226;51.600;8.034;2023-04-25T06:27:02;31.45;;;5.40;;
32876;SDS011;19226;51.600;8.034;2023-04-25T06:29:46;25.27;;;5.78;;
32876;SDS011;19226;51.600;8.034;2023-04-25T06:32:32;17.52;;;3.60;;
32876;SDS011;19226;51.600;8.034;2023-04-25T06:35:18;23.90;;;4.97;;
32876;SDS011;19226;51.600;8.034;2023-04-25T06:38:03;19.52;;;5.10;;
32876;SDS011;19226;51.600;8.034;2023-04-25T06:40:49;19.17;;;4.72;;
32876;SDS011;19226;51.600;8.034;2023-04-25T06:43:35;18.23;;;4.80;;
32876;SDS011;19226;51.600;8.034;2023-04-25T06:46:49;25.42;;;5.35;;
32876;SDS011;19226;51.600;8.034;2023-04-25T06:49:33;29.55;;;5.57;;
32876;SDS011;19226;51.600;8.034;2023-04-25T06:52:19;20.80;;;4.53;;
32876;SDS011;19226;51.600;8.034;2023-04-25T06:55:05;30.05;;;5.28;;
32876;SDS011;19226;51.600;8.034;2023-04-25T06:58:19;28.00;;;4.93;;
32876;SDS011;19226;51.600;8.034;2023-04-25T07:01:16;16.50;;;4.60;;
32876;SDS011;19226;51.600;8.034;2023-04-25T07:04:00;32.08;;;4.35;;
32876;SDS011;19226;51.600;8.034;2023-04-25T07:06:46;23.90;;;4.88;;
32876;SDS011;19226;51.600;8.034;2023-04-25T07:09:34;24.42;;;5.40;;
32876;SDS011;19226;51.600;8.034;2023-04-25T07:12:19;14.25;;;4.93;;
32876;SDS011;19226;51.600;8.034;2023-04-25T07:15:03;16.35;;;3.55;;
32876;SDS011;19226;51.600;8.034;2023-04-25T07:17:50;18.13;;;3.78;;
32876;SDS011;19226;51.600;8.034;2023-04-25T07:20:35;21.50;;;3.90;;
32876;SDS011;19226;51.600;8.034;2023-04-25T07:23:20;24.05;;;4.05;;
32876;SDS011;19226;51.600;8.034;2023-04-25T07:26:05;24.20;;;4.07;;
32876;SDS011;19226;51.600;8.034;2023-04-25T07:28:50;16.98;;;4.13;;
32876;SDS011;19226;51.600;8.034;2023-04-25T07:31:35;15.80;;;4.05;;
32876;SDS011;19226;51.600;8.034;2023-04-25T07:34:20;23.25;;;3.72;;
32876;SDS011;19226;51.600;8.034;2023-04-25T07:37:05;17.90;;;3.45;;
32876;SDS011;19226;51.600;8.034;2023-04-25T07:39:56;12.57;;;3.53;;
32876;SDS011;19226;51.600;8.034;2023-04-25T07:42:41;15.43;;;3.97;;
32876;SDS011;19226;51.600;8.034;2023-04-25T07:45:25;13.95;;;3.40;;
32876;SDS011;19226;51.600;8.034;2023-04-25T07:48:11;19.55;;;4.20;;
32876;SDS011;19226;51.600;8.034;2023-04-25T07:51:01;11.50;;;3.30;;
32876;SDS011;19226;51.600;8.034;2023-04-25T07:53:46;17.33;;;4.03;;
32876;SDS011;19226;51.600;8.034;2023-04-25T07:56:33;27.75;;;3.15;;
32876;SDS011;19226;51.600;8.034;2023-04-25T07:59:18;19.45;;;3.17;;
32876;SDS011;19226;51.600;8.034;2023-04-25T08:02:04;11.32;;;3.03;;
32876;SDS011;19226;51.600;8.034;2023-04-25T08:04:49;16.38;;;3.13;;
32876;SDS011;19226;51.600;8.034;2023-04-25T08:07:35;17.95;;;3.53;;
32876;SDS011;19226;51.600;8.034;2023-04-25T08:10:22;15.38;;;3.42;;
32876;SDS011;19226;51.600;8.034;2023-04-25T08:13:07;15.88;;;3.03;;
32876;SDS011;19226;51.600;8.034;2023-04-25T08:15:52;17.13;;;3.45;;
32876;SDS011;19226;51.600;8.034;2023-04-25T08:18:36;14.68;;;3.10;;
32876;SDS011;19226;51.600;8.034;2023-04-25T08:21:21;18.17;;;3.45;;
32876;SDS011;19226;51.600;8.034;2023-04-25T08:24:06;17.05;;;3.33;;
32876;SDS011;19226;51.600;8.034;2023-04-25T08:26:54;19.97;;;3.47;;
32876;SDS011;19226;51.600;8.034;2023-04-25T08:29:41;11.38;;;2.53;;
32876;SDS011;19226;51.600;8.034;2023-04-25T08:32:27;17.85;;;2.70;;
32876;SDS011;19226;51.600;8.034;2023-04-25T08:35:31;17.50;;;2.88;;
32876;SDS011;19226;51.600;8.034;2023-04-25T08:38:18;14.45;;;3.83;;
32876;SDS011;19226;51.600;8.034;2023-04-25T08:41:03;12.52;;;2.70;;
32876;SDS011;19226;51.600;8.034;2023-04-25T08:43:50;9.75;;;2.08;;
32876;SDS011;19226;51.600;8.034;2023-04-25T08:46:40;13.02;;;2.50;;
32876;SDS011;19226;51.600;8.034;2023-04-25T08:49:38;11.82;;;2.25;;
32876;SDS011;19226;51.600;8.034;2023-04-25T08:52:30;14.98;;;2.80;;
32876;SDS011;19226;51.600;8.034;2023-04-25T08:55:20;13.23;;;2.42;;
32876;SDS011;19226;51.600;8.034;2023-04-25T08:58:10;19.20;;;2.85;;
32876;SDS011;19226;51.600;8.034;2023-04-25T09:00:55;13.60;;;2.75;;
32876;SDS011;19226;51.600;8.034;2023-04-25T09:03:43;15.27;;;2.53;;
32876;SDS011;19226;51.600;8.034;2023-04-25T09:06:30;8.60;;;2.67;;
32876;SDS011;19226;51.600;8.034;2023-04-25T09:09:16;14.85;;;2.50;;
32876;SDS011;19226;51.600;8.034;2023-04-25T09:12:02;9.70;;;2.10;;
32876;SDS011;19226;51.600;8.034;2023-04-25T09:15:00;5.72;;;2.35;;
32876;SDS011;19226;51.600;8.034;2023-04-25T09:18:08;8.13;;;2.05;;
32876;SDS011;19226;51.600;8.034;2023-04-25T09:21:07;9.73;;;2.50;;
32876;SDS011;19226;51.600;8.034;2023-04-25T09:23:53;10.07;;;1.95;;
32876;SDS011;19226;51.600;8.034;2023-04-25T09:26:38;8.13;;;1.90;;
32876;SDS011;19226;51.600;8.034;2023-04-25T09:29:33;17.52;;;2.03;;
32876;SDS011;19226;51.600;8.034;2023-04-25T09:32:21;9.60;;;2.70;;
32876;SDS011;19226;51.600;8.034;2023-04-25T09:35:09;17.40;;;2.30;;
32876;SDS011;19226;51.600;8.034;2023-04-25T09:37:55;6.82;;;2.50;;
32876;SDS011;19226;51.600;8.034;2023-04-25T09:40:59;6.93;;;2.33;;
32876;SDS011;19226;51.600;8.034;2023-04-25T09:43:56;3.65;;;1.88;;
32876;SDS011;19226;51.600;8.034;2023-04-25T09:46:44;12.05;;;2.97;;
32876;SDS011;19226;51.600;8.034;2023-04-25T09:49:40;10.50;;;3.17;;
32876;SDS011;19226;51.600;8.034;2023-04-25T09:52:30;6.07;;;1.63;;
32876;SDS011;19226;51.600;8.034;2023-04-25T09:55:23;6.70;;;1.95;;
32876;SDS011;19226;51.600;8.034;2023-04-25T09:58:09;8.70;;;2.25;;
32876;SDS011;19226;51.600;8.034;2023-04-25T10:00:55;12.68;;;2.13;;
32876;SDS011;19226;51.600;8.034;2023-04-25T10:03:53;13.90;;;2.50;;
32876;SDS011;19226;51.600;8.034;2023-04-25T10:06:59;11.15;;;2.67;;
32876;SDS011;19226;51.600;8.034;2023-04-25T10:09:45;9.38;;;1.70;;
32876;SDS011;19226;51.600;8.034;2023-04-25T10:12:33;6.97;;;1.95;;
32876;SDS011;19226;51.600;8.034;2023-04-25T10:15:18;8.18;;;2.63;;
32876;SDS011;19226;51.600;8.034;2023-04-25T10:18:03;14.85;;;2.75;;
32876;SDS011;19226;51.600;8.034;2023-04-25T10:20:50;15.40;;;2.38;;
32876;SDS011;19226;51.600;8.034;2023-04-25T10:23:35;6.85;;;1.80;;
32876;SDS011;19226;51.600;8.034;2023-04-25T10:26:21;9.05;;;2.65;;
32876;SDS011;19226;51.600;8.034;2023-04-25T10:29:07;2.92;;;1.73;;
32876;SDS011;19226;51.600;8.034;2023-04-25T10:31:53;8.77;;;1.80;;
32876;SDS011;19226;51.600;8.034;2023-04-25T10:34:38;7.30;;;1.80;;
32876;SDS011;19226;51.600;8.034;2023-04-25T10:37:24;11.45;;;1.98;;
32876;SDS011;19226;51.600;8.034;2023-04-25T10:40:09;7.47;;;1.98;;
32876;SDS011;19226;51.600;8.034;2023-04-25T10:42:54;9.63;;;1.75;;
32876;SDS011;19226;51.600;8.034;2023-04-25T10:45:52;8.32;;;2.25;;
32876;SDS011;19226;51.600;8.034;2023-04-25T10:48:37;6.82;;;1.67;;
32876;SDS011;19226;51.600;8.034;2023-04-25T10:51:32;10.43;;;1.73;;
32876;SDS011;19226;51.600;8.034;2023-04-25T10:54:17;6.65;;;2.05;;
32876;SDS011;19226;51.600;8.034;2023-04-25T10:57:03;5.00;;;1.60;;
32876;SDS011;19226;51.600;8.034;2023-04-25T10:59:47;9.85;;;1.63;;
32876;SDS011;19226;51.600;8.034;2023-04-25T11:02:33;9.95;;;1.92;;
32876;SDS011;19226;51.600;8.034;2023-04-25T11:08:11;9.63;;;1.77;;
32876;SDS011;19226;51.600;8.034;2023-04-25T11:10:56;9.15;;;2.03;;
32876;SDS011;19226;51.600;8.034;2023-04-25T11:13:40;7.05;;;1.90;;
32876;SDS011;19226;51.600;8.034;2023-04-25T11:16:26;9.93;;;2.00;;
32876;SDS011;19226;51.600;8.034;2023-04-25T11:19:11;9.40;;;2.05;;
32876;SDS011;19226;51.600;8.034;2023-04-25T11:21:59;7.63;;;1.95;;
32876;SDS011;19226;51.600;8.034;2023-04-25T11:24:46;16.02;;;2.38;;
32876;SDS011;19226;51.600;8.034;2023-04-25T11:27:30;7.32;;;1.60;;
32876;SDS011;19226;51.600;8.034;2023-04-25T11:30:15;6.32;;;1.70;;
32876;SDS011;19226;51.600;8.034;2023-04-25T11:33:00;10.13;;;1.45;;
32876;SDS011;19226;51.600;8.034;2023-04-25T11:35:46;8.23;;;1.80;;
32876;SDS011;19226;51.600;8.034;2023-04-25T11:38:31;9.20;;;1.70;;
32876;SDS011;19226;51.600;8.034;2023-04-25T11:41:15;6.63;;;1.38;;
32876;SDS011;19226;51.600;8.034;2023-04-25T11:44:00;5.88;;;1.30;;
32876;SDS011;19226;51.600;8.034;2023-04-25T11:46:45;9.35;;;1.75;;
32876;SDS011;19226;51.600;8.034;2023-04-25T11:49:31;4.70;;;1.60;;
32876;SDS011;19226;51.600;8.034;2023-04-25T11:52:16;5.55;;;1.83;;
32876;SDS011;19226;51.600;8.034;2023-04-25T11:55:00;5.38;;;1.98;;
32876;SDS011;19226;51.600;8.034;2023-04-25T11:57:46;6.63;;;1.95;;
32876;SDS011;19226;51.600;8.034;2023-04-25T12:00:35;5.43;;;1.48;;
32876;SDS011;19226;51.600;8.034;2023-04-25T12:03:19;7.75;;;1.88;;
32876;SDS011;19226;51.600;8.034;2023-04-25T12:06:07;16.20;;;2.35;;
32876;SDS011;19226;51.600;8.034;2023-04-25T12:09:02;7.60;;;1.60;;
32876;SDS011;19226;51.600;8.034;2023-04-25T12:11:48;5.28;;;1.65;;
32876;SDS011;19226;51.600;8.034;2023-04-25T12:14:37;7.63;;;1.55;;
32876;SDS011;19226;51.600;8.034;2023-04-25T12:17:21;6.15;;;1.23;;
32876;SDS011;19226;51.600;8.034;2023-04-25T12:20:10;6.13;;;1.50;;
32876;SDS011;19226;51.600;8.034;2023-04-25T12:22:58;4.07;;;1.05;;
32876;SDS011;19226;51.600;8.034;2023-04-25T12:25:43;2.80;;;1.20;;
32876;SDS011;19226;51.600;8.034;2023-04-25T12:28:29;5.20;;;1.50;;
32876;SDS011;19226;51.600;8.034;2023-04-25T12:31:17;6.85;;;1.45;;
32876;SDS011;19226;51.600;8.034;2023-04-25T12:34:01;7.53;;;1.40;;
32876;SDS011;19226;51.600;8.034;2023-04-25T12:36:46;5.88;;;1.30;;
32876;SDS011;19226;51.600;8.034;2023-04-25T12:39:31;4.22;;;1.67;;
32876;SDS011;19226;51.600;8.034;2023-04-25T12:42:16;1.95;;;1.00;;
32876;SDS011;19226;51.600;8.034;2023-04-25T12:45:00;5.55;;;1.00;;
32876;SDS011;19226;51.600;8.034;2023-04-25T12:47:45;3.40;;;1.27;;
32876;SDS011;19226;51.600;8.034;2023-04-25T12:50:29;7.30;;;1.15;;
32876;SDS011;19226;51.600;8.034;2023-04-25T12:53:15;3.25;;;1.70;;
32876;SDS011;19226;51.600;8.034;2023-04-25T12:56:01;7.63;;;1.83;;
32876;SDS011;19226;51.600;8.034;2023-04-25T12:58:45;2.80;;;1.23;;
32876;SDS011;19226;51.600;8.034;2023-04-25T13:01:31;7.63;;;1.20;;
32876;SDS011;19226;51.600;8.034;2023-04-25T13:04:16;9.38;;;1.40;;
32876;SDS011;19226;51.600;8.034;2023-04-25T13:07:01;11.35;;;1.25;;
32876;SDS011;19226;51.600;8.034;2023-04-25T13:09:46;8.50;;;2.00;;
32876;SDS011;19226;51.600;8.034;2023-04-25T13:12:30;8.65;;;1.73;;
32876;SDS011;19226;51.600;8.034;2023-04-25T13:15:15;8.75;;;1.50;;
32876;SDS011;19226;51.600;8.034;2023-04-25T13:18:00;9.30;;;1.88;;
32876;SDS011;19226;51.600;8.034;2023-04-25T13:20:44;4.03;;;1.92;;
32876;SDS011;19226;51.600;8.034;2023-04-25T13:23:30;8.95;;;1.58;;
32876;SDS011;19226;51.600;8.034;2023-04-25T13:26:14;5.15;;;1.55;;
32876;SDS011;19226;51.600;8.034;2023-04-25T13:28:59;4.72;;;1.58;;
32876;SDS011;19226;51.600;8.034;2023-04-25T13:31:46;10.75;;;1.35;;
32876;SDS011;19226;51.600;8.034;2023-04-25T13:34:30;8.68;;;1.20;;
32876;SDS011;19226;51.600;8.034;2023-04-25T13:37:15;6.45;;;1.05;;
32876;SDS011;19226;51.600;8.034;2023-04-25T13:40:00;3.60;;;0.98;;
32876;SDS011;19226;51.600;8.034;2023-04-25T13:42:48;4.20;;;1.10;;
32876;SDS011;19226;51.600;8.034;2023-04-25T13:45:32;10.60;;;1.52;;
32876;SDS011;19226;51.600;8.034;2023-04-25T13:48:17;4.20;;;1.50;;
32876;SDS011;19226;51.600;8.034;2023-04-25T13:51:03;6.93;;;1.42;;
32876;SDS011;19226;51.600;8.034;2023-04-25T13:53:48;5.78;;;1.40;;
32876;SDS011;19226;51.600;8.034;2023-04-25T13:56:33;4.15;;;1.10;;
32876;SDS011;19226;51.600;8.034;2023-04-25T13:59:17;6.78;;;1.42;;
32876;SDS011;19226;51.600;8.034;2023-04-25T14:02:02;7.15;;;1.73;;
32876;SDS011;19226;51.600;8.034;2023-04-25T14:04:46;8.05;;;1.60;;
32876;SDS011;19226;51.600;8.034;2023-04-25T14:07:31;4.53;;;1.15;;
32876;SDS011;19226;51.600;8.034;2023-04-25T14:10:17;6.88;;;1.15;;
32876;SDS011;19226;51.600;8.034;2023-04-25T14:13:02;7.75;;;1.33;;
32876;SDS011;19226;51.600;8.034;2023-04-25T14:15:47;4.80;;;1.05;;
32876;SDS011;19226;51.600;8.034;2023-04-25T14:18:31;7.40;;;1.20;;
32876;SDS011;19226;51.600;8.034;2023-04-25T14:21:16;9.00;;;1.30;;
32876;SDS011;19226;51.600;8.034;2023-04-25T14:24:01;5.55;;;1.35;;
32876;SDS011;19226;51.600;8.034;2023-04-25T14:26:45;7.70;;;1.20;;
32876;SDS011;19226;51.600;8.034;2023-04-25T14:29:30;4.13;;;0.93;;
32876;SDS011;19226;51.600;8.034;2023-04-25T14:32:15;6.15;;;1.13;;
32876;SDS011;19226;51.600;8.034;2023-04-25T14:35:01;7.93;;;1.67;;
32876;SDS011;19226;51.600;8.034;2023-04-25T14:37:46;2.65;;;0.90;;
32876;SDS011;19226;51.600;8.034;2023-04-25T14:40:30;9.63;;;1.55;;
32876;SDS011;19226;51.600;8.034;2023-04-25T14:43:15;4.03;;;1.08;;
32876;SDS011;19226;51.600;8.034;2023-04-25T14:45:59;4.38;;;1.27;;
32876;SDS011;19226;51.600;8.034;2023-04-25T14:48:45;4.20;;;1.40;;
32876;SDS011;19226;51.600;8.034;2023-04-25T14:51:30;2.53;;;1.17;;
32876;SDS011;19226;51.600;8.034;2023-04-25T14:54:15;7.00;;;1.00;;
32876;SDS011;19226;51.600;8.034;2023-04-25T14:57:00;4.30;;;1.00;;
32876;SDS011;19226;51.600;8.034;2023-04-25T14:59:45;4.95;;;1.10;;
32876;SDS011;19226;51.600;8.034;2023-04-25T15:02:31;4.93;;;1.23;;
32876;SDS011;19226;51.600;8.034;2023-04-25T15:05:15;6.28;;;1.30;;
32876;SDS011;19226;51.600;8.034;2023-04-25T15:08:01;3.38;;;1.48;;
32876;SDS011;19226;51.600;8.034;2023-04-25T15:10:46;11.23;;;1.63;;
32876;SDS011;19226;51.600;8.034;2023-04-25T15:13:31;6.82;;;1.50;;
32876;SDS011;19226;51.600;8.034;2023-04-25T15:16:16;6.90;;;2.65;;
32876;SDS011;19226;51.600;8.034;2023-04-25T15:19:01;10.32;;;1.75;;
32876;SDS011;19226;51.600;8.034;2023-04-25T15:21:47;5.47;;;1.90;;
32876;SDS011;19226;51.600;8.034;2023-04-25T15:24:32;4.78;;;1.20;;
32876;SDS011;19226;51.600;8.034;2023-04-25T15:27:17;5.30;;;1.27;;
32876;SDS011;19226;51.600;8.034;2023-04-25T15:30:01;5.45;;;1.40;;
32876;SDS011;19226;51.600;8.034;2023-04-25T15:32:46;3.95;;;1.50;;
32876;SDS011;19226;51.600;8.034;2023-04-25T15:35:31;3.60;;;1.23;;
32876;SDS011;19226;51.600;8.034;2023-04-25T15:38:16;4.82;;;1.20;;
32876;SDS011;19226;51.600;8.034;2023-04-25T15:41:00;3.25;;;1.23;;
32876;SDS011;19226;51.600;8.034;2023-04-25T15:43:46;7.20;;;1.52;;
32876;SDS011;19226;51.600;8.034;2023-04-25T15:46:31;4.60;;;0.93;;
32876;SDS011;19226;51.600;8.034;2023-04-25T15:49:16;5.22;;;1.33;;
32876;SDS011;19226;51.600;8.034;2023-04-25T15:52:01;5.72;;;1.42;;
32876;SDS011;19226;51.600;8.034;2023-04-25T15:54:46;5.95;;;1.50;;
32876;SDS011;19226;51.600;8.034;2023-04-25T15:57:32;11.50;;;2.13;;
32876;SDS011;19226;51.600;8.034;2023-04-25T16:00:18;6.35;;;2.17;;
32876;SDS011;19226;51.600;8.034;2023-04-25T16:03:05;3.60;;;1.30;;
32876;SDS011;19226;51.600;8.034;2023-04-25T16:05:50;4.97;;;1.20;;
32876;SDS011;19226;51.600;8.034;2023-04-25T16:08:35;8.45;;;1.98;;
32876;SDS011;19226;51.600;8.034;2023-04-25T16:11:19;7.65;;;1.73;;
32876;SDS011;19226;51.600;8.034;2023-04-25T16:14:04;3.00;;;1.02;;
32876;SDS011;19226;51.600;8.034;2023-04-25T16:16:49;4.35;;;0.93;;
32876;SDS011;19226;51.600;8.034;2023-04-25T16:19:33;4.32;;;1.30;;
32876;SDS011;19226;51.600;8.034;2023-04-25T16:22:18;8.73;;;1.42;;
32876;SDS011;19226;51.600;8.034;2023-04-25T16:25:03;3.85;;;1.10;;
32876;SDS011;19226;51.600;8.034;2023-04-25T16:27:48;2.47;;;1.10;;
32876;SDS011;19226;51.600;8.034;2023-04-25T16:30:33;4.95;;;1.60;;
32876;SDS011;19226;51.600;8.034;2023-04-25T16:33:17;6.78;;;1.77;;
32876;SDS011;19226;51.600;8.034;2023-04-25T16:36:02;5.35;;;1.33;;
32876;SDS011;19226;51.600;8.034;2023-04-25T16:38:47;17.17;;;8.85;;
32876;SDS011;19226;51.600;8.034;2023-04-25T16:41:31;52.35;;;29.08;;